Time;durP1;ratioP1;P1;durP2;ratioP2;P2;SDS_P1;SDS_P2;PMS_P1;PMS_P2;Temp;Humidity;BMP_temperature;BMP_pressure;BME280_temperature;BME280_humidity;BME280_pressure;Samples;Min_cycle;Max_cycle;Signal;HPM_P1;HPM_P2
2022/01/08 00:01:24;;;;;;;;;;;2.60;99.90;;;;;;5072943;28;19921;-46
2022/01/08 00:03:51;;;;;;;;;;;2.60;99.90;;;;;;5073321;28;20435;-46
2022/01/08 00:06:17;;;;;;;;;;;2.60;99.90;;;;;;5072731;28;19916;-47
2022/01/08 00:08:42;;;;;;;;;;;2.60;99.90;;;;;;5073369;28;19961;-47
2022/01/08 00:11:10;;;;;;;;;;;2.60;99.90;;;;;;5073215;28;20263;-46
2022/01/08 00:13:37;;;;;;;;;;;2.50;99.90;;;;;;5072881;28;19962;-46
2022/01/08 00:16:03;;;;;;;;;;;2.60;99.90;;;;;;5073290;28;19962;-47
2022/01/08 00:18:28;;;;;;;;;;;2.50;99.90;;;;;;5085365;28;20275;-46
2022/01/08 00:20:54;;;;;;;;;;;2.50;99.90;;;;;;5092895;28;19912;-46
2022/01/08 00:23:19;;;;;;;;;;;2.50;99.90;;;;;;5086196;28;19955;-47
2022/01/08 00:25:45;;;;;;;;;;;2.50;99.90;;;;;;5077300;28;19912;-45
2022/01/08 00:28:10;;;;;;;;;;;2.50;99.90;;;;;;5076660;28;19909;-47
2022/01/08 00:30:36;;;;;;;;;;;2.50;99.90;;;;;;5077105;28;20307;-46
2022/01/08 00:33:01;;;;;;;;;;;2.50;99.90;;;;;;5076987;28;19909;-46
2022/01/08 00:35:27;;;;;;;;;;;2.50;99.90;;;;;;5076440;28;19908;-46
2022/01/08 00:37:53;;;;;;;;;;;2.50;99.90;;;;;;5086707;28;20280;-45
2022/01/08 00:40:18;;;;;;;;;;;2.50;99.90;;;;;;5097119;28;19915;-45
2022/01/08 00:42:44;;;;;;;;;;;2.50;99.90;;;;;;5096700;28;20264;-47
2022/01/08 00:45:09;;;;;;;;;;;2.40;99.90;;;;;;5097072;28;20369;-48
2022/01/08 00:47:35;;;;;;;;;;;2.40;99.90;;;;;;5097081;28;19911;-46
2022/01/08 00:50:01;;;;;;;;;;;2.40;99.90;;;;;;5096574;28;20311;-47
2022/01/08 00:52:26;;;;;;;;;;;2.50;99.90;;;;;;5096873;28;19908;-46
2022/01/08 00:54:52;;;;;;;;;;;2.50;99.90;;;;;;5097051;28;19908;-46
2022/01/08 00:57:18;;;;;;;;;;;2.50;99.90;;;;;;5088645;28;19912;-46
2022/01/08 00:59:43;;;;;;;;;;;2.50;99.90;;;;;;5076412;28;20007;-45
2022/01/08 01:02:09;;;;;;;;;;;2.50;99.90;;;;;;5076026;28;19924;-46
2022/01/08 01:04:34;;;;;;;;;;;2.50;99.90;;;;;;5076007;28;19908;-45
2022/01/08 01:07:00;;;;;;;;;;;2.50;99.90;;;;;;5076405;28;19944;-47
2022/01/08 01:09:25;;;;;;;;;;;2.40;99.90;;;;;;5075748;28;20283;-44
2022/01/08 01:11:55;;;;;;;;;;;2.50;99.90;;;;;;5076503;28;19908;-46
2022/01/08 01:14:21;;;;;;;;;;;2.50;99.90;;;;;;5076178;28;19912;-45
2022/01/08 01:16:46;;;;;;;;;;;2.50;99.90;;;;;;5075599;28;19920;-46
2022/01/08 01:19:12;;;;;;;;;;;2.50;99.90;;;;;;5076214;28;19913;-45
2022/01/08 01:21:37;;;;;;;;;;;2.50;99.90;;;;;;5076161;28;20425;-45
2022/01/08 01:24:10;;;;;;;;;;;2.50;99.90;;;;;;5075595;28;19908;-46
2022/01/08 01:26:38;;;;;;;;;;;2.40;99.90;;;;;;5076039;28;19912;-45
2022/01/08 01:29:27;;;;;;;;;;;2.40;99.90;;;;;;5076005;28;19908;-45
2022/01/08 01:43:16;;;;;;;;;;;2.30;99.90;;;;;;5096055;28;19927;-45
2022/01/08 01:48:24;;;;;;;;;;;2.20;99.90;;;;;;5096205;28;20428;-45
2022/01/08 01:50:50;;;;;;;;;;;2.20;99.90;;;;;;5095915;28;19908;-45
2022/01/08 01:53:15;;;;;;;;;;;2.10;99.90;;;;;;5095220;28;19958;-45
2022/01/08 01:55:41;;;;;;;;;;;2.10;99.90;;;;;;5095628;28;19915;-45
2022/01/08 01:58:07;;;;;;;;;;;2.10;99.90;;;;;;5075442;28;19996;-45
2022/01/08 02:00:33;;;;;;;;;;;2.10;99.90;;;;;;5074842;28;19992;-45
2022/01/08 02:02:58;;;;;;;;;;;2.10;99.90;;;;;;5075192;28;19921;-45
2022/01/08 02:05:24;;;;;;;;;;;2.00;99.90;;;;;;5075244;28;19908;-45
2022/01/08 02:07:49;;;;;;;;;;;2.10;99.90;;;;;;5074882;28;19912;-46
2022/01/08 02:10:15;;;;;;;;;;;2.10;99.90;;;;;;5075176;28;20290;-46
2022/01/08 02:12:40;;;;;;;;;;;2.10;99.90;;;;;;5074584;28;19931;-45
2022/01/08 02:15:06;;;;;;;;;;;2.00;99.90;;;;;;5074997;28;19916;-46
2022/01/08 02:17:31;;;;;;;;;;;2.00;99.90;;;;;;5092308;28;19908;-46
2022/01/08 02:19:57;;;;;;;;;;;2.00;99.90;;;;;;5094896;28;19912;-45
2022/01/08 02:22:22;;;;;;;;;;;2.10;99.90;;;;;;5095121;28;19920;-45
2022/01/08 02:24:48;;;;;;;;;;;2.10;99.90;;;;;;5095223;28;19908;-45
2022/01/08 02:27:14;;;;;;;;;;;2.10;99.90;;;;;;5094580;28;19908;-46
2022/01/08 02:29:40;;;;;;;;;;;2.10;99.90;;;;;;5095142;28;19916;-45
2022/01/08 02:32:16;;;;;;;;;;;2.10;99.90;;;;;;5095101;28;19973;-45
2022/01/08 02:34:43;;;;;;;;;;;2.20;99.90;;;;;;5094510;28;20278;-45
2022/01/08 02:37:09;;;;;;;;;;;2.10;99.90;;;;;;5093067;28;19908;-45
2022/01/08 02:39:39;;;;;;;;;;;2.10;99.90;;;;;;5094881;28;19919;-45
2022/01/08 02:42:05;;;;;;;;;;;2.20;99.90;;;;;;5092718;28;19927;-45
2022/01/08 02:44:31;;;;;;;;;;;2.10;99.90;;;;;;5094541;28;20011;-45
2022/01/08 02:46:56;;;;;;;;;;;2.10;99.90;;;;;;5094187;28;20355;-45
2022/01/08 02:49:23;;;;;;;;;;;2.10;99.90;;;;;;5094121;28;20369;-46
2022/01/08 02:51:49;;;;;;;;;;;2.10;99.90;;;;;;5094646;28;20325;-45
2022/01/08 02:54:14;;;;;;;;;;;2.10;99.90;;;;;;5094506;28;19908;-45
2022/01/08 02:56:41;;;;;;;;;;;2.00;99.90;;;;;;5094018;28;19961;-46
2022/01/08 02:59:06;;;;;;;;;;;2.00;99.90;;;;;;5094427;28;19908;-45
2022/01/08 03:01:32;;;;;;;;;;;1.90;99.90;;;;;;5094259;28;20370;-46
2022/01/08 03:03:58;;;;;;;;;;;1.90;99.90;;;;;;5094104;28;19930;-45
2022/01/08 03:06:23;;;;;;;;;;;1.90;99.90;;;;;;5084200;28;19952;-45
2022/01/08 03:08:49;;;;;;;;;;;1.90;99.90;;;;;;5073744;28;19908;-48
2022/01/08 03:11:14;;;;;;;;;;;1.90;99.90;;;;;;5073999;28;20363;-44
2022/01/08 03:13:40;;;;;;;;;;;1.90;99.90;;;;;;5074012;28;20310;-46
2022/01/08 03:16:05;;;;;;;;;;;1.90;99.90;;;;;;5073532;28;19930;-45
2022/01/08 03:18:31;;;;;;;;;;;1.90;99.90;;;;;;5073895;28;20314;-46
2022/01/08 03:21:01;;;;;;;;;;;1.90;99.90;;;;;;5073867;28;20232;-46
2022/01/08 03:23:39;;;;;;;;;;;1.80;99.90;;;;;;5073328;28;19934;-45
2022/01/08 03:26:05;;;;;;;;;;;1.80;99.90;;;;;;5073817;28;19908;-45
2022/01/08 03:28:30;;;;;;;;;;;1.80;99.90;;;;;;5073884;28;20340;-45
2022/01/08 03:30:56;;;;;;;;;;;1.80;99.90;;;;;;5073303;28;20273;-45
2022/01/08 03:33:21;;;;;;;;;;;1.80;99.90;;;;;;5073728;28;19909;-45
2022/01/08 03:35:47;;;;;;;;;;;1.80;99.90;;;;;;5078017;28;19957;-45
2022/01/08 03:38:12;;;;;;;;;;;1.80;99.90;;;;;;5093185;28;20260;-46
2022/01/08 03:40:37;;;;;;;;;;;1.70;99.90;;;;;;5093786;28;19912;-45
2022/01/08 03:43:03;;;;;;;;;;;1.70;99.90;;;;;;5093823;28;19939;-45
2022/01/08 03:45:28;;;;;;;;;;;1.70;99.90;;;;;;5093224;28;19919;-46
2022/01/08 03:48:16;;;;;;;;;;;1.70;99.90;;;;;;5093760;28;19915;-45
2022/01/08 03:50:39;;;;;;;;;;;1.70;99.90;;;;;;5093570;28;19915;-46
2022/01/08 03:53:05;;;;;;;;;;;1.60;99.90;;;;;;5093181;28;19908;-45
2022/01/08 03:55:30;;;;;;;;;;;1.70;99.90;;;;;;5091478;28;19913;-47
2022/01/08 03:57:56;;;;;;;;;;;1.60;99.90;;;;;;5075009;28;19923;-45
2022/01/08 04:00:21;;;;;;;;;;;1.60;99.90;;;;;;5092921;28;19914;-46
2022/01/08 04:02:47;;;;;;;;;;;1.60;99.90;;;;;;5093385;28;19926;-45
2022/01/08 04:05:12;;;;;;;;;;;1.70;99.90;;;;;;5092983;28;19908;-46
2022/01/08 04:07:38;;;;;;;;;;;1.70;99.90;;;;;;5093465;28;20252;-46
2022/01/08 04:10:03;;;;;;;;;;;1.70;99.90;;;;;;5093628;28;19908;-46
2022/01/08 04:12:39;;;;;;;;;;;1.70;99.90;;;;;;5092834;28;20400;-46
2022/01/08 04:15:09;;;;;;;;;;;1.70;99.90;;;;;;5090845;28;19921;-46
2022/01/08 04:17:34;;;;;;;;;;;1.70;99.90;;;;;;5073278;28;19974;-46
2022/01/08 04:20:00;;;;;;;;;;;1.70;99.90;;;;;;5072611;28;20267;-46
2022/01/08 04:22:26;;;;;;;;;;;1.80;99.90;;;;;;5073102;28;19916;-45
2022/01/08 04:24:52;;;;;;;;;;;1.80;99.90;;;;;;5073204;28;19915;-45
2022/01/08 04:27:19;;;;;;;;;;;1.80;99.90;;;;;;5072722;28;19971;-45
2022/01/08 04:29:44;;;;;;;;;;;1.80;99.90;;;;;;5073261;28;19908;-46
2022/01/08 04:32:10;;;;;;;;;;;1.80;99.90;;;;;;5073157;28;20359;-47
2022/01/08 04:34:35;;;;;;;;;;;1.90;99.90;;;;;;5072442;28;20340;-46
2022/01/08 04:37:01;;;;;;;;;;;1.80;99.90;;;;;;5073194;28;20274;-46
2022/01/08 04:39:27;;;;;;;;;;;1.80;99.90;;;;;;5072960;28;19908;-47
2022/01/08 04:41:53;;;;;;;;;;;1.80;99.90;;;;;;5072525;28;19923;-46
2022/01/08 04:44:19;;;;;;;;;;;1.80;99.90;;;;;;5073027;28;19908;-46
2022/01/08 04:46:44;;;;;;;;;;;1.80;99.90;;;;;;5084953;28;19912;-45
2022/01/08 04:49:10;;;;;;;;;;;1.80;99.90;;;;;;5092542;28;19947;-47
2022/01/08 04:51:35;;;;;;;;;;;1.80;99.90;;;;;;5093199;28;19915;-46
2022/01/08 04:54:00;;;;;;;;;;;1.80;99.90;;;;;;5093191;28;20358;-46
2022/01/08 04:56:26;;;;;;;;;;;1.80;99.90;;;;;;5092589;28;20365;-46
2022/01/08 04:58:51;;;;;;;;;;;1.80;99.90;;;;;;5093129;28;19908;-46
2022/01/08 05:01:17;;;;;;;;;;;1.90;99.90;;;;;;5092575;28;20367;-46
2022/01/08 05:03:43;;;;;;;;;;;1.80;99.90;;;;;;5092615;28;19908;-47
2022/01/08 05:06:08;;;;;;;;;;;1.80;99.90;;;;;;5092999;28;19908;-46
2022/01/08 05:08:34;;;;;;;;;;;1.80;99.90;;;;;;5093201;28;19915;-46
2022/01/08 05:11:00;;;;;;;;;;;1.70;99.90;;;;;;5096751;28;20031;-46
2022/01/08 05:13:25;;;;;;;;;;;1.60;99.90;;;;;;5096475;28;20377;-46
2022/01/08 05:15:51;;;;;;;;;;;1.60;99.90;;;;;;5087878;28;19913;-47
2022/01/08 05:18:16;;;;;;;;;;;1.60;99.90;;;;;;5075972;28;19913;-45
2022/01/08 05:20:50;;;;;;;;;;;1.60;99.90;;;;;;5076008;28;19959;-46
2022/01/08 05:23:15;;;;;;;;;;;1.60;99.90;;;;;;5075655;28;20081;-46
2022/01/08 05:25:41;;;;;;;;;;;1.60;99.90;;;;;;5076184;28;20366;-46
2022/01/08 05:28:06;;;;;;;;;;;1.60;99.90;;;;;;5076114;28;20367;-46
2022/01/08 05:30:32;;;;;;;;;;;1.60;99.90;;;;;;5075192;28;20275;-46
2022/01/08 05:32:57;;;;;;;;;;;1.60;99.90;;;;;;5075983;28;20007;-46
2022/01/08 05:35:24;;;;;;;;;;;1.60;99.90;;;;;;5075868;28;19909;-48
2022/01/08 05:37:49;;;;;;;;;;;1.60;99.90;;;;;;5075239;28;19908;-45
2022/01/08 05:40:15;;;;;;;;;;;1.60;99.90;;;;;;5075879;28;19908;-46
2022/01/08 05:42:41;;;;;;;;;;;1.50;99.90;;;;;;5075893;28;19964;-46
2022/01/08 05:45:07;;;;;;;;;;;1.40;99.90;;;;;;5076248;28;19962;-46
2022/01/08 05:47:34;;;;;;;;;;;1.40;99.90;;;;;;5075511;28;19916;-46
2022/01/08 05:49:59;;;;;;;;;;;1.30;99.90;;;;;;5075703;28;19978;-47
2022/01/08 05:52:25;;;;;;;;;;;1.30;99.90;;;;;;5075045;28;20351;-47
2022/01/08 05:54:50;;;;;;;;;;;1.30;99.90;;;;;;5075607;28;19915;-46
2022/01/08 05:57:16;;;;;;;;;;;1.30;99.90;;;;;;5075477;28;19912;-46
2022/01/08 05:59:41;;;;;;;;;;;1.40;99.90;;;;;;5075124;28;19944;-47
2022/01/08 06:02:09;;;;;;;;;;;1.40;99.90;;;;;;5075060;28;20351;-48
2022/01/08 06:04:35;;;;;;;;;;;1.40;99.90;;;;;;5075449;28;19999;-46
2022/01/08 06:07:00;;;;;;;;;;;1.40;99.90;;;;;;5074947;28;19958;-48
2022/01/08 06:09:26;;;;;;;;;;;1.50;99.90;;;;;;5075305;28;20420;-46
2022/01/08 06:11:51;;;;;;;;;;;1.50;99.90;;;;;;5074678;28;20407;-47
2022/01/08 06:14:16;;;;;;;;;;;1.50;99.90;;;;;;5075249;28;19909;-47
2022/01/08 06:16:42;;;;;;;;;;;1.50;99.90;;;;;;5090928;28;20008;-46
2022/01/08 06:19:09;;;;;;;;;;;1.50;99.90;;;;;;5094506;28;19912;-47
2022/01/08 06:21:36;;;;;;;;;;;1.50;99.90;;;;;;5095308;28;19955;-46
2022/01/08 06:24:01;;;;;;;;;;;1.50;99.90;;;;;;5095263;28;20375;-47
2022/01/08 06:26:27;;;;;;;;;;;1.50;99.90;;;;;;5094552;28;19988;-46
2022/01/08 06:28:52;;;;;;;;;;;1.50;99.90;;;;;;5093446;28;19913;-46
2022/01/08 06:31:18;;;;;;;;;;;1.50;99.90;;;;;;5095018;28;20310;-47
2022/01/08 06:33:44;;;;;;;;;;;1.50;99.90;;;;;;5094482;28;20339;-48
2022/01/08 06:36:09;;;;;;;;;;;1.50;99.90;;;;;;5094961;28;19915;-46
2022/01/08 06:38:35;;;;;;;;;;;1.50;99.90;;;;;;5094977;28;19936;-46
2022/01/08 06:41:00;;;;;;;;;;;1.50;99.90;;;;;;5094472;28;19916;-46
2022/01/08 06:43:26;;;;;;;;;;;1.40;99.90;;;;;;5094915;28;19919;-47
2022/01/08 06:45:51;;;;;;;;;;;1.40;99.90;;;;;;5085000;28;19918;-47
2022/01/08 06:48:17;;;;;;;;;;;1.40;99.90;;;;;;5073807;28;19912;-46
2022/01/08 06:50:42;;;;;;;;;;;1.50;99.90;;;;;;5074620;28;19916;-46
2022/01/08 06:53:07;;;;;;;;;;;1.50;99.90;;;;;;5074487;28;20410;-47
2022/01/08 06:55:33;;;;;;;;;;;1.50;99.90;;;;;;5073883;28;19912;-46
2022/01/08 06:57:59;;;;;;;;;;;1.50;99.90;;;;;;5074368;28;19908;-46
2022/01/08 07:00:25;;;;;;;;;;;1.50;99.90;;;;;;5074204;28;19908;-48
2022/01/08 07:02:50;;;;;;;;;;;1.50;99.90;;;;;;5073434;28;19973;-46
2022/01/08 07:05:16;;;;;;;;;;;1.40;99.90;;;;;;5075167;28;19917;-46
2022/01/08 07:07:41;;;;;;;;;;;1.40;99.90;;;;;;5074178;28;19909;-47
2022/01/08 07:10:07;;;;;;;;;;;1.40;99.90;;;;;;5073609;28;19908;-47
2022/01/08 07:12:32;;;;;;;;;;;1.40;99.90;;;;;;5073924;28;19962;-47
2022/01/08 07:14:58;;;;;;;;;;;1.40;99.90;;;;;;5073717;28;20332;-48
2022/01/08 07:17:23;;;;;;;;;;;1.40;99.90;;;;;;5073821;28;19978;-46
2022/01/08 07:19:49;;;;;;;;;;;1.50;99.90;;;;;;5074030;28;19908;-46
2022/01/08 07:22:15;;;;;;;;;;;1.40;99.90;;;;;;5073283;28;19924;-47
2022/01/08 07:24:40;;;;;;;;;;;1.50;99.90;;;;;;5077214;28;19912;-49
2022/01/08 07:27:06;;;;;;;;;;;1.40;99.90;;;;;;5093678;28;20026;-48
2022/01/08 07:29:31;;;;;;;;;;;1.50;99.90;;;;;;5093390;28;19910;-48
2022/01/08 07:31:57;;;;;;;;;;;1.50;99.90;;;;;;5093644;28;19974;-48
2022/01/08 07:34:22;;;;;;;;;;;1.50;99.90;;;;;;5093376;28;19923;-48
2022/01/08 07:36:48;;;;;;;;;;;1.40;99.90;;;;;;5092871;28;19908;-49
2022/01/08 07:39:13;;;;;;;;;;;1.40;99.90;;;;;;5093339;28;19939;-47
2022/01/08 07:41:39;;;;;;;;;;;1.40;99.90;;;;;;5092909;28;20255;-47
2022/01/08 07:44:05;;;;;;;;;;;1.40;99.90;;;;;;5092454;28;19912;-49
2022/01/08 07:46:30;;;;;;;;;;;1.40;99.90;;;;;;5093188;28;20042;-47
2022/01/08 07:48:56;;;;;;;;;;;1.40;99.90;;;;;;5093264;28;20138;-47
2022/01/08 07:51:21;;;;;;;;;;;1.40;99.90;;;;;;5092528;28;19943;-48
2022/01/08 07:53:46;;;;;;;;;;;1.40;99.90;;;;;;5093585;28;19913;-48
2022/01/08 07:56:12;;;;;;;;;;;1.40;99.90;;;;;;5091966;28;19913;-47
2022/01/08 07:58:37;;;;;;;;;;;1.40;99.90;;;;;;5072882;28;19916;-47
2022/01/08 08:01:03;;;;;;;;;;;1.40;99.90;;;;;;5072869;28;19928;-47
2022/01/08 08:03:28;;;;;;;;;;;1.40;99.90;;;;;;5072933;28;19908;-47
2022/01/08 08:05:54;;;;;;;;;;;1.40;99.90;;;;;;5071671;28;19920;-47
2022/01/08 08:08:20;;;;;;;;;;;1.40;99.90;;;;;;5070712;28;19912;-47
2022/01/08 08:10:48;;;;;;;;;;;1.40;99.90;;;;;;5072834;28;19962;-50
2022/01/08 08:13:14;;;;;;;;;;;1.50;99.90;;;;;;5089170;28;19909;-47
2022/01/08 08:15:40;;;;;;;;;;;1.50;99.90;;;;;;5092567;28;19909;-48
2022/01/08 08:18:05;;;;;;;;;;;1.50;99.90;;;;;;5092776;28;20438;-47
2022/01/08 08:20:31;;;;;;;;;;;1.50;99.90;;;;;;5092225;28;19916;-51
2022/01/08 08:22:56;;;;;;;;;;;1.60;99.90;;;;;;5092530;28;19966;-48
2022/01/08 08:25:21;;;;;;;;;;;1.60;99.90;;;;;;5092205;28;20011;-47
2022/01/08 08:27:47;;;;;;;;;;;1.60;99.90;;;;;;5092408;28;19908;-47
2022/01/08 08:30:12;;;;;;;;;;;1.70;99.90;;;;;;5092760;28;20377;-49
2022/01/08 08:32:38;;;;;;;;;;;1.80;99.90;;;;;;5072789;28;19987;-47
2022/01/08 08:35:04;;;;;;;;;;;1.80;99.90;;;;;;5072500;28;20248;-46
2022/01/08 08:37:29;;;;;;;;;;;1.80;99.90;;;;;;5077484;28;19916;-47
2022/01/08 08:39:55;;;;;;;;;;;1.90;99.90;;;;;;5091942;28;20427;-47
2022/01/08 08:42:20;;;;;;;;;;;1.90;99.90;;;;;;5091468;28;19920;-47
2022/01/08 08:44:46;;;;;;;;;;;1.90;99.90;;;;;;5094539;28;20056;-48
2022/01/08 08:47:11;;;;;;;;;;;1.90;99.90;;;;;;5095464;28;19991;-47
2022/01/08 08:49:37;;;;;;;;;;;2.00;99.90;;;;;;5095684;28;20000;-47
2022/01/08 08:52:03;;;;;;;;;;;2.00;99.90;;;;;;5095740;28;19999;-47
2022/01/08 08:54:28;;;;;;;;;;;2.00;99.90;;;;;;5095666;28;19909;-47
2022/01/08 08:56:54;;;;;;;;;;;2.00;99.90;;;;;;5095089;28;19947;-47
2022/01/08 08:59:19;;;;;;;;;;;2.00;99.90;;;;;;5092189;28;19919;-48
2022/01/08 09:01:44;;;;;;;;;;;2.10;99.90;;;;;;5094971;28;19967;-47
2022/01/08 09:04:10;;;;;;;;;;;2.10;99.90;;;;;;5095705;28;19912;-47
2022/01/08 09:06:36;;;;;;;;;;;2.10;99.90;;;;;;5094171;28;19912;-48
2022/01/08 09:09:02;;;;;;;;;;;2.10;99.90;;;;;;5092563;28;19950;-48
2022/01/08 09:11:28;;;;;;;;;;;2.20;99.90;;;;;;5094806;28;20003;-47
2022/01/08 09:13:53;;;;;;;;;;;2.10;99.90;;;;;;5094397;28;20631;-48
2022/01/08 09:16:19;;;;;;;;;;;2.20;99.90;;;;;;5094067;28;19962;-47
2022/01/08 09:18:44;;;;;;;;;;;2.20;99.90;;;;;;5094714;28;19908;-48
2022/01/08 09:21:10;;;;;;;;;;;2.20;99.90;;;;;;5095874;28;20389;-49
2022/01/08 09:23:37;;;;;;;;;;;2.30;99.90;;;;;;5095069;28;19920;-47
2022/01/08 09:26:03;;;;;;;;;;;2.30;99.90;;;;;;5095733;28;19912;-47
2022/01/08 09:28:30;;;;;;;;;;;2.40;99.90;;;;;;5095501;28;20339;-47
2022/01/08 09:30:56;;;;;;;;;;;2.40;99.90;;;;;;5092006;28;20363;-47
2022/01/08 09:33:22;;;;;;;;;;;2.40;99.90;;;;;;5083003;28;19963;-47
2022/01/08 09:35:47;;;;;;;;;;;2.50;99.90;;;;;;5091783;28;19974;-47
2022/01/08 09:38:13;;;;;;;;;;;2.50;99.90;;;;;;5093350;28;19919;-49
2022/01/08 09:40:38;;;;;;;;;;;2.50;99.90;;;;;;5090749;28;19916;-47
2022/01/08 09:43:04;;;;;;;;;;;2.60;99.90;;;;;;5093553;28;20490;-47
2022/01/08 09:45:30;;;;;;;;;;;2.70;99.90;;;;;;5093959;28;19909;-47
2022/01/08 09:47:55;;;;;;;;;;;2.70;99.90;;;;;;5093942;28;20252;-48
2022/01/08 09:50:21;;;;;;;;;;;2.80;99.90;;;;;;5092899;28;19939;-47
2022/01/08 09:52:46;;;;;;;;;;;2.80;99.90;;;;;;5093272;28;19912;-49
2022/01/08 09:55:12;;;;;;;;;;;2.80;99.90;;;;;;5093024;28;20045;-51
2022/01/08 09:57:37;;;;;;;;;;;2.80;99.90;;;;;;5092601;28;20334;-49
2022/01/08 10:00:10;;;;;;;;;;;2.90;99.90;;;;;;5093274;28;20278;-47
2022/01/08 10:02:36;;;;;;;;;;;2.80;99.90;;;;;;5091464;28;19920;-48
2022/01/08 10:05:12;;;;;;;;;;;2.90;99.90;;;;;;5092930;28;20378;-48
2022/01/08 10:07:37;;;;;;;;;;;2.90;99.90;;;;;;5091181;28;19918;-49
2022/01/08 10:10:07;;;;;;;;;;;2.90;99.90;;;;;;5093650;28;20003;-48
2022/01/08 10:12:35;;;;;;;;;;;2.90;99.90;;;;;;5092941;28;19908;-50
2022/01/08 10:17:46;;;;;;;;;;;3.10;99.90;;;;;;5085318;28;19966;-49
2022/01/08 10:20:11;;;;;;;;;;;3.10;99.90;;;;;;5086538;28;19912;-52
2022/01/08 10:22:37;;;;;;;;;;;3.10;99.90;;;;;;5093288;28;20347;-48
2022/01/08 10:25:09;;;;;;;;;;;3.20;99.90;;;;;;5092644;28;19961;-49
2022/01/08 10:27:35;;;;;;;;;;;3.20;99.90;;;;;;5090112;28;19912;-51
2022/01/08 10:30:01;;;;;;;;;;;3.20;99.90;;;;;;5093054;28;19908;-49
2022/01/08 10:32:27;;;;;;;;;;;3.30;99.90;;;;;;5092540;28;20375;-47
2022/01/08 10:34:52;;;;;;;;;;;3.30;99.90;;;;;;5079235;28;20353;-51
2022/01/08 10:37:18;;;;;;;;;;;3.30;99.90;;;;;;5088288;28;20382;-48
2022/01/08 10:39:52;;;;;;;;;;;3.30;99.90;;;;;;5090430;28;20004;-47
2022/01/08 10:42:18;;;;;;;;;;;3.40;99.90;;;;;;5088866;28;20384;-50
2022/01/08 10:44:46;;;;;;;;;;;3.40;99.90;;;;;;5090904;28;20389;-49
2022/01/08 10:47:16;;;;;;;;;;;3.50;99.90;;;;;;5092276;28;19915;-52
2022/01/08 10:49:56;;;;;;;;;;;3.50;99.90;;;;;;5081459;28;19912;-49
2022/01/08 10:52:22;;;;;;;;;;;3.50;99.90;;;;;;5085807;28;19908;-49
2022/01/08 10:54:48;;;;;;;;;;;3.60;99.90;;;;;;5091575;28;20297;-49
2022/01/08 10:57:14;;;;;;;;;;;3.60;99.90;;;;;;5093472;28;19908;-46
2022/01/08 10:59:40;;;;;;;;;;;3.60;99.90;;;;;;5091892;28;19912;-46
2022/01/08 11:02:07;;;;;;;;;;;3.60;99.90;;;;;;5090328;28;19971;-46
2022/01/08 11:04:32;;;;;;;;;;;3.60;99.90;;;;;;5092794;28;19909;-46
2022/01/08 11:06:59;;;;;;;;;;;3.60;99.90;;;;;;5091528;28;19908;-46
2022/01/08 11:09:26;;;;;;;;;;;3.60;99.90;;;;;;5085643;28;19915;-46
2022/01/08 11:11:52;;;;;;;;;;;3.60;99.90;;;;;;5085235;28;19944;-46
2022/01/08 11:17:08;;;;;;;;;;;3.60;99.90;;;;;;5050168;28;19916;-48
2022/01/08 11:19:34;;;;;;;;;;;3.70;99.90;;;;;;5086550;28;19957;-49
2022/01/08 11:22:00;;;;;;;;;;;3.60;99.90;;;;;;5091721;28;20011;-49
2022/01/08 11:24:26;;;;;;;;;;;3.60;99.90;;;;;;5092805;28;20015;-46
2022/01/08 11:26:51;;;;;;;;;;;3.60;99.90;;;;;;5092867;28;19919;-47
2022/01/08 11:29:21;;;;;;;;;;;3.60;99.90;;;;;;5092551;28;20351;-47
2022/01/08 11:31:48;;;;;;;;;;;3.60;99.90;;;;;;5084719;28;19951;-46
2022/01/08 11:34:14;;;;;;;;;;;3.70;99.90;;;;;;5089568;28;20021;-46
2022/01/08 11:36:41;;;;;;;;;;;3.70;99.90;;;;;;5091716;28;20331;-48
2022/01/08 11:39:09;;;;;;;;;;;3.80;99.90;;;;;;5092296;28;20065;-46
2022/01/08 11:41:35;;;;;;;;;;;3.80;99.90;;;;;;5092196;28;19927;-46
2022/01/08 11:44:03;;;;;;;;;;;3.90;99.90;;;;;;5092190;28;19912;-47
2022/01/08 11:46:30;;;;;;;;;;;4.00;99.90;;;;;;5089913;28;19919;-46
2022/01/08 11:48:55;;;;;;;;;;;4.00;99.90;;;;;;5091852;28;19915;-47
2022/01/08 11:51:27;;;;;;;;;;;4.10;99.90;;;;;;5084263;28;19913;-47
2022/01/08 11:53:55;;;;;;;;;;;4.10;99.90;;;;;;5088278;28;19991;-46
2022/01/08 11:56:25;;;;;;;;;;;4.10;99.90;;;;;;5091613;28;19912;-50
2022/01/08 11:59:21;;;;;;;;;;;4.20;99.90;;;;;;5092083;28;19912;-47
2022/01/08 12:02:06;;;;;;;;;;;4.20;99.90;;;;;;5087185;28;19967;-47
2022/01/08 12:04:33;;;;;;;;;;;4.30;99.90;;;;;;5091714;28;19961;-46
2022/01/08 12:06:58;;;;;;;;;;;4.20;99.90;;;;;;5083580;28;20351;-48
2022/01/08 12:09:26;;;;;;;;;;;4.30;99.90;;;;;;5082867;28;19915;-49
2022/01/08 12:11:54;;;;;;;;;;;4.40;99.90;;;;;;5081402;28;19908;-48
2022/01/08 12:14:21;;;;;;;;;;;4.40;99.90;;;;;;5085262;28;20047;-47
2022/01/08 12:16:47;;;;;;;;;;;4.40;99.90;;;;;;5083460;28;19908;-49
2022/01/08 12:19:32;;;;;;;;;;;4.50;99.90;;;;;;5091803;28;20286;-47
2022/01/08 12:21:58;;;;;;;;;;;4.50;99.90;;;;;;5087094;28;20016;-48
2022/01/08 12:24:26;;;;;;;;;;;4.40;99.90;;;;;;5096103;28;20430;-50
2022/01/08 12:26:55;;;;;;;;;;;4.40;99.90;;;;;;5095505;28;19908;-49
2022/01/08 12:29:35;;;;;;;;;;;4.40;99.90;;;;;;5091299;28;19995;-48
2022/01/08 12:32:19;;;;;;;;;;;4.30;99.90;;;;;;5086507;28;19939;-51
2022/01/08 12:34:51;;;;;;;;;;;4.30;99.90;;;;;;5090848;28;19935;-50
2022/01/08 12:37:18;;;;;;;;;;;4.30;99.90;;;;;;5090925;28;20286;-48
2022/01/08 12:39:43;;;;;;;;;;;4.30;99.90;;;;;;5079397;28;19962;-49
2022/01/08 12:42:24;;;;;;;;;;;4.30;99.90;;;;;;5078042;28;19931;-47
2022/01/08 12:44:58;;;;;;;;;;;4.30;99.90;;;;;;5088807;28;19908;-51
2022/01/08 12:47:40;;;;;;;;;;;4.30;99.90;;;;;;5087630;28;19963;-49
2022/01/08 12:50:15;;;;;;;;;;;4.30;99.90;;;;;;5086750;28;20492;-47
2022/01/08 12:53:01;;;;;;;;;;;4.30;99.90;;;;;;5085790;28;19934;-50
2022/01/08 12:55:26;;;;;;;;;;;4.30;99.90;;;;;;5088200;28;19912;-48
2022/01/08 12:57:52;;;;;;;;;;;4.20;99.90;;;;;;5088116;28;20335;-50
2022/01/08 13:00:17;;;;;;;;;;;4.20;99.90;;;;;;5083934;28;19912;-50
2022/01/08 13:02:47;;;;;;;;;;;4.20;99.90;;;;;;5094914;28;20004;-50
2022/01/08 13:05:12;;;;;;;;;;;4.20;99.90;;;;;;5091010;28;19915;-49
2022/01/08 13:07:51;;;;;;;;;;;4.20;99.90;;;;;;5084199;28;19913;-50
2022/01/08 13:10:17;;;;;;;;;;;4.20;99.90;;;;;;5085335;28;19919;-47
2022/01/08 13:12:43;;;;;;;;;;;4.20;99.90;;;;;;5086001;28;19946;-49
2022/01/08 13:15:09;;;;;;;;;;;4.20;99.90;;;;;;5079964;28;20347;-49
2022/01/08 13:17:35;;;;;;;;;;;4.20;99.90;;;;;;5091208;28;19961;-51
2022/01/08 13:20:05;;;;;;;;;;;4.20;99.90;;;;;;5094918;28;19912;-47
2022/01/08 13:22:31;;;;;;;;;;;4.20;99.90;;;;;;5089095;28;19924;-52
2022/01/08 13:24:57;;;;;;;;;;;4.20;99.90;;;;;;5097821;28;19926;-50
2022/01/08 13:27:23;;;;;;;;;;;4.10;99.90;;;;;;5089351;28;19912;-52
2022/01/08 13:29:50;;;;;;;;;;;4.20;99.90;;;;;;5088242;28;20500;-49
2022/01/08 13:32:17;;;;;;;;;;;4.20;99.90;;;;;;5086296;28;19920;-51
2022/01/08 13:34:44;;;;;;;;;;;4.20;99.90;;;;;;5088216;28;19920;-48
2022/01/08 13:37:17;;;;;;;;;;;4.30;99.90;;;;;;5086989;28;20007;-51
2022/01/08 13:39:50;;;;;;;;;;;4.20;99.90;;;;;;5087680;28;20003;-48
2022/01/08 13:42:25;;;;;;;;;;;4.20;99.90;;;;;;5085286;28;19970;-51
2022/01/08 13:44:53;;;;;;;;;;;4.30;99.90;;;;;;5085701;28;20348;-50
2022/01/08 13:47:18;;;;;;;;;;;4.20;99.90;;;;;;5094408;28;20007;-52
2022/01/08 13:49:48;;;;;;;;;;;4.20;99.90;;;;;;5093966;28;19991;-51
2022/01/08 13:52:18;;;;;;;;;;;4.20;99.90;;;;;;5091716;28;19908;-48
2022/01/08 13:54:43;;;;;;;;;;;4.20;99.90;;;;;;5089901;28;19951;-52
2022/01/08 13:57:13;;;;;;;;;;;4.20;99.90;;;;;;5089904;28;19971;-51
2022/01/08 13:59:38;;;;;;;;;;;4.20;99.90;;;;;;5094014;28;19908;-51
2022/01/08 14:02:04;;;;;;;;;;;4.30;99.90;;;;;;5090863;28;19973;-48
2022/01/08 14:04:29;;;;;;;;;;;4.20;99.90;;;;;;5088425;28;19916;-48
2022/01/08 14:06:58;;;;;;;;;;;4.30;99.90;;;;;;5091174;28;19965;-49
2022/01/08 14:09:24;;;;;;;;;;;4.20;99.90;;;;;;5094333;28;19912;-52
2022/01/08 14:11:49;;;;;;;;;;;4.30;99.90;;;;;;5088320;28;19961;-48
2022/01/08 14:14:19;;;;;;;;;;;4.20;99.90;;;;;;5087470;28;20302;-50
2022/01/08 14:16:45;;;;;;;;;;;4.30;99.90;;;;;;5077908;28;20379;-49
2022/01/08 14:19:14;;;;;;;;;;;4.20;99.90;;;;;;5093284;28;19908;-48
2022/01/08 14:21:40;;;;;;;;;;;4.20;99.90;;;;;;5095616;28;19916;-49
2022/01/08 14:24:12;;;;;;;;;;;4.20;99.90;;;;;;5079081;28;19913;-47
2022/01/08 14:26:38;;;;;;;;;;;4.30;99.90;;;;;;5074547;28;19917;-48
2022/01/08 14:29:09;;;;;;;;;;;4.20;99.90;;;;;;5076060;28;20061;-48
2022/01/08 14:31:35;;;;;;;;;;;4.30;99.90;;;;;;5075901;28;20359;-47
2022/01/08 14:34:21;;;;;;;;;;;4.20;99.90;;;;;;5088698;28;19964;-48
2022/01/08 14:37:00;;;;;;;;;;;4.30;99.90;;;;;;5093452;28;20002;-50
2022/01/08 14:39:31;;;;;;;;;;;4.20;99.90;;;;;;5073845;28;19961;-49
2022/01/08 14:41:58;;;;;;;;;;;4.20;99.90;;;;;;5072715;28;19930;-50
2022/01/08 14:44:24;;;;;;;;;;;4.30;99.90;;;;;;5075030;28;19917;-49
2022/01/08 14:46:50;;;;;;;;;;;4.20;99.90;;;;;;5072724;28;19909;-47
2022/01/08 14:49:16;;;;;;;;;;;4.20;99.90;;;;;;5073538;28;20019;-47